Time;durP1;ratioP1;P1;durP2;ratioP2;P2;SDS_P1;SDS_P2;PMS_P1;PMS_P2;Temp;Humidity;BMP_temperature;BMP_pressure;BME280_temperature;BME280_humidity;BME280_pressure;Samples;Min_cycle;Max_cycle;Signal;HPM_P1;HPM_P2
2021/04/04 00:02:10;;;;;;;6.03;1.92;;;;;;;17.75;48.82;102928.19;5015574;28;20029;-73
2021/04/04 00:04:35;;;;;;;1.48;1.08;;;;;;;17.59;48.66;102897.09;5037871;28;20020;-73
2021/04/04 00:07:01;;;;;;;2.40;1.50;;;;;;;17.70;48.55;102919.28;5019100;28;20033;-75
2021/04/04 00:09:26;;;;;;;1.92;1.38;;;;;;;17.70;48.65;102920.16;5002296;28;20075;-72
2021/04/04 00:11:51;;;;;;;2.55;1.27;;;;;;;17.67;48.74;102909.59;5003241;28;20535;-72
2021/04/04 00:14:18;;;;;;;1.50;1.10;;;;;;;17.75;48.91;102925.56;5036248;28;20030;-72
2021/04/04 00:16:44;;;;;;;2.20;1.50;;;;;;;17.73;49.04;102928.13;5028005;28;20044;-73
2021/04/04 00:19:09;;;;;;;1.77;0.95;;;;;;;17.72;48.75;102917.59;5039028;28;20045;-74
2021/04/04 00:21:35;;;;;;;2.17;1.20;;;;;;;17.66;48.91;102913.06;5042082;28;20032;-73
2021/04/04 00:24:04;;;;;;;2.60;1.20;;;;;;;17.71;48.55;102924.56;5018600;28;21020;-73
2021/04/04 00:26:29;;;;;;;2.35;1.45;;;;;;;17.70;48.83;102922.78;5021919;28;20037;-73
2021/04/04 00:28:54;;;;;;;3.38;1.30;;;;;;;17.70;48.69;102920.16;5020849;28;20025;-73
2021/04/04 00:31:20;;;;;;;2.85;2.00;;;;;;;17.73;48.97;102925.50;5041488;28;20028;-73
2021/04/04 00:33:45;;;;;;;3.08;1.45;;;;;;;17.66;48.84;102915.66;5055646;28;20020;-73
2021/04/04 00:36:11;;;;;;;1.80;1.10;;;;;;;17.62;49.00;102905.03;5041766;28;20028;-76
2021/04/04 00:38:36;;;;;;;2.85;1.92;;;;;;;17.72;48.78;102915.88;5025402;28;20509;-73
2021/04/04 00:41:02;;;;;;;2.80;1.50;;;;;;;17.66;48.72;102901.69;5024861;28;20025;-73
2021/04/04 00:43:27;;;;;;;3.17;1.33;;;;;;;17.59;48.56;102884.91;5035073;28;20041;-73
2021/04/04 00:45:52;;;;;;;2.20;1.10;;;;;;;17.65;48.86;102903.47;5038235;28;20036;-73
2021/04/04 00:48:18;;;;;;;2.72;1.40;;;;;;;17.67;48.97;102909.59;5041477;28;20025;-73
2021/04/04 00:50:43;;;;;;;2.88;1.23;;;;;;;17.71;48.98;102905.34;5040185;28;20013;-72
2021/04/04 00:53:09;;;;;;;3.95;1.65;;;;;;;17.63;48.73;102901.59;5057148;28;20025;-73
2021/04/04 00:55:35;;;;;;;1.70;1.10;;;;;;;17.70;49.00;102903.56;5023047;28;20405;-74
2021/04/04 00:58:01;;;;;;;2.20;1.27;;;;;;;17.71;48.89;102903.63;5022496;28;20080;-73
2021/04/04 01:00:28;;;;;;;2.45;1.33;;;;;;;17.66;48.75;102897.34;5039053;28;20471;-73
2021/04/04 01:02:56;;;;;;;3.03;1.42;;;;;;;17.67;48.81;102895.63;5039225;28;20446;-73
2021/04/04 01:05:32;;;;;;;3.83;1.55;;;;;;;17.69;48.70;102905.31;5038619;28;20358;-74
2021/04/04 01:07:58;;;;;;;3.40;1.75;;;;;;;17.68;48.91;102897.41;5036908;28;20076;-74
2021/04/04 01:10:29;;;;;;;2.33;1.40;;;;;;;17.64;48.91;102883.38;5019024;28;20026;-73
2021/04/04 01:13:02;;;;;;;1.77;1.30;;;;;;;17.62;48.98;102884.13;5037651;28;20032;-74
2021/04/04 01:15:51;;;;;;;2.23;1.30;;;;;;;17.70;48.76;102898.34;5042617;28;20124;-73
2021/04/04 01:18:22;;;;;;;2.05;1.33;;;;;;;17.70;48.79;102898.34;5029430;28;20286;-72
2021/04/04 01:20:55;;;;;;;2.33;1.00;;;;;;;17.68;48.79;102894.78;5044808;28;20025;-75
2021/04/04 01:23:58;;;;;;;2.35;1.13;;;;;;;17.66;48.95;102892.13;5057670;28;20028;-73
2021/04/04 01:26:42;;;;;;;3.15;1.48;;;;;;;17.69;48.94;102897.47;5019255;28;20364;-73
2021/04/04 01:29:09;;;;;;;2.05;1.02;;;;;;;17.66;48.75;102894.75;5033554;28;20021;-73
2021/04/04 01:31:36;;;;;;;2.42;1.27;;;;;;;17.64;48.75;102893.84;5029394;28;20389;-72
2021/04/04 01:34:03;;;;;;;2.85;1.25;;;;;;;17.64;49.06;102883.38;5055388;28;20542;-73
2021/04/04 01:36:31;;;;;;;1.73;1.20;;;;;;;17.65;48.78;102877.28;5021461;28;20131;-73
2021/04/04 01:39:00;;;;;;;1.30;1.10;;;;;;;17.66;48.78;102875.53;5055951;28;20112;-73
2021/04/04 01:41:33;;;;;;;1.88;1.40;;;;;;;17.63;48.91;102867.59;5038938;28;20032;-74
2021/04/04 01:44:01;;;;;;;2.72;1.13;;;;;;;17.67;48.91;102877.31;5055780;28;20146;-72
2021/04/04 01:46:27;;;;;;;3.70;1.52;;;;;;;17.67;48.91;102880.81;5038504;28;20025;-73
2021/04/04 01:48:55;;;;;;;2.25;1.25;;;;;;;17.64;48.57;102877.25;5034610;28;20029;-72
2021/04/04 01:51:22;;;;;;;2.22;0.88;;;;;;;17.64;48.78;102872.00;5032776;28;20028;-75
2021/04/04 01:53:49;;;;;;;2.65;1.33;;;;;;;17.65;49.04;102879.91;5054940;28;20021;-72
2021/04/04 01:56:15;;;;;;;1.50;1.05;;;;;;;17.54;48.72;102854.19;5055068;28;20518;-72
2021/04/04 01:58:42;;;;;;;1.83;1.20;;;;;;;17.65;49.09;102874.69;5022185;28;20076;-73
2021/04/04 02:01:10;;;;;;;2.33;1.05;;;;;;;17.46;48.90;102833.06;5018614;28;20029;-73
2021/04/04 02:03:35;;;;;;;1.75;1.05;;;;;;;17.63;48.69;102855.41;5005151;28;20472;-72
2021/04/04 02:06:02;;;;;;;1.50;0.80;;;;;;;17.63;48.98;102857.13;4990069;28;20033;-72
2021/04/04 02:08:28;;;;;;;2.00;1.20;;;;;;;17.48;48.95;102827.03;5002882;28;20379;-72
2021/04/04 02:10:55;;;;;;;2.30;1.23;;;;;;;17.60;48.96;102847.44;5032025;28;20112;-72
2021/04/04 02:13:23;;;;;;;2.42;1.15;;;;;;;17.61;48.87;102849.22;5026434;28;20498;-72
2021/04/04 02:15:49;;;;;;;2.05;1.10;;;;;;;17.60;48.78;102842.22;5057981;28;20116;-72
2021/04/04 02:18:15;;;;;;;2.22;1.08;;;;;;;17.64;48.97;102851.09;5025934;28;20483;-72
2021/04/04 02:20:41;;;;;;;3.13;1.20;;;;;;;17.54;48.76;102838.50;5015039;28;20022;-74
2021/04/04 02:23:10;;;;;;;1.58;1.10;;;;;;;17.54;48.91;102839.38;5030686;28;20030;-73
2021/04/04 02:25:36;;;;;;;3.15;1.52;;;;;;;17.54;48.78;102842.00;5022510;28;20056;-73
2021/04/04 02:28:04;;;;;;;2.13;1.10;;;;;;;17.56;49.04;102839.44;5036182;28;20025;-73
2021/04/04 02:30:29;;;;;;;2.05;1.17;;;;;;;17.58;48.76;102843.88;4999817;28;20033;-72
2021/04/04 02:33:01;;;;;;;1.90;1.10;;;;;;;17.62;48.73;102855.34;5013350;28;20487;-74
2021/04/04 02:35:33;;;;;;;2.20;1.00;;;;;;;17.61;48.99;102846.59;5020167;28;20411;-73
2021/04/04 02:38:00;;;;;;;4.63;1.25;;;;;;;17.59;48.75;102845.66;5002862;28;20555;-73
2021/04/04 02:40:26;;;;;;;1.90;1.30;;;;;;;17.55;48.79;102833.31;5021898;28;20112;-73
2021/04/04 02:42:54;;;;;;;1.60;1.20;;;;;;;17.58;48.80;102829.91;5021540;28;20051;-73
2021/04/04 02:45:24;;;;;;;1.88;1.08;;;;;;;17.56;48.92;102831.59;5022021;28;20025;-73
2021/04/04 02:47:56;;;;;;;2.25;1.10;;;;;;;17.57;48.92;102830.75;5021828;28;20029;-75
2021/04/04 02:50:25;;;;;;;2.15;1.23;;;;;;;17.57;48.48;102834.25;5032567;28;20031;-72
2021/04/04 02:52:53;;;;;;;1.83;1.10;;;;;;;17.58;48.76;102828.19;5021725;28;20025;-72
2021/04/04 02:55:22;;;;;;;1.77;1.38;;;;;;;17.60;48.50;102831.75;5041355;28;20052;-75
2021/04/04 02:57:49;;;;;;;2.40;1.60;;;;;;;17.61;48.75;102825.66;5041478;28;20048;-73
2021/04/04 03:00:17;;;;;;;1.63;1.02;;;;;;;17.58;48.50;102819.44;5044198;28;20053;-73
2021/04/04 03:02:43;;;;;;;2.08;1.48;;;;;;;17.59;48.78;102814.28;5041002;28;20025;-73
2021/04/04 03:05:09;;;;;;;3.65;1.40;;;;;;;17.57;48.94;102810.72;5008589;28;20033;-73
2021/04/04 03:07:39;;;;;;;2.13;1.27;;;;;;;17.60;48.79;102817.78;5040291;28;20017;-74
2021/04/04 03:10:06;;;;;;;3.30;1.23;;;;;;;17.52;49.03;102814.06;5040123;28;20021;-74
2021/04/04 03:12:33;;;;;;;6.50;1.30;;;;;;;17.58;48.88;102814.22;5024708;28;20064;-76
2021/04/04 03:15:02;;;;;;;3.78;1.13;;;;;;;17.52;49.17;102806.19;5026577;28;20035;-73
2021/04/04 03:17:29;;;;;;;1.60;0.88;;;;;;;17.53;48.99;102803.59;5043950;28;20386;-73
2021/04/04 03:19:56;;;;;;;3.58;1.70;;;;;;;17.56;48.76;102806.31;5041299;28;20025;-73
2021/04/04 03:22:22;;;;;;;1.13;0.98;;;;;;;17.59;48.79;102816.00;4996324;28;20032;-73
2021/04/04 03:24:48;;;;;;;1.60;1.10;;;;;;;17.58;48.52;102815.09;5007155;28;20040;-74
2021/04/04 03:27:17;;;;;;;1.48;0.95;;;;;;;17.35;48.77;102774.28;5018389;28;20468;-73
2021/04/04 03:29:42;;;;;;;2.00;1.50;;;;;;;17.53;48.80;102815.84;5018970;28;20022;-73
2021/04/04 03:32:08;;;;;;;2.20;1.27;;;;;;;17.58;48.89;102822.94;5003839;28;20523;-74
2021/04/04 03:34:35;;;;;;;1.50;0.88;;;;;;;17.50;48.71;102803.53;5021334;28;20096;-74
2021/04/04 03:37:01;;;;;;;1.95;1.13;;;;;;;17.49;48.92;102799.16;5015502;28;20044;-74
2021/04/04 03:39:27;;;;;;;1.85;1.30;;;;;;;17.49;48.78;102797.41;5005541;28;20029;-73
2021/04/04 03:41:56;;;;;;;1.58;1.10;;;;;;;17.50;48.67;102799.19;4989977;28;20120;-74
2021/04/04 03:44:25;;;;;;;3.20;1.25;;;;;;;17.53;48.84;102810.59;5026959;28;20382;-75
2021/04/04 03:46:53;;;;;;;1.80;1.10;;;;;;;17.54;48.99;102813.22;5038954;28;20052;-76
2021/04/04 03:49:20;;;;;;;2.40;1.00;;;;;;;17.51;48.87;102807.94;5039972;28;20082;-74
2021/04/04 03:51:46;;;;;;;1.77;1.00;;;;;;;17.52;49.08;102799.25;5040306;28;20430;-75
2021/04/04 03:54:13;;;;;;;3.00;1.20;;;;;;;17.55;48.70;102817.63;5026729;28;20018;-74
2021/04/04 03:56:42;;;;;;;1.45;1.00;;;;;;;17.44;48.71;102791.16;5000910;28;20042;-73
2021/04/04 03:59:11;;;;;;;1.75;0.90;;;;;;;17.50;48.73;102800.91;5018812;28;20377;-73
2021/04/04 04:01:39;;;;;;;3.17;1.50;;;;;;;17.53;48.76;102805.38;5017918;28;20026;-73
2021/04/04 04:04:07;;;;;;;2.42;1.15;;;;;;;17.51;48.97;102802.69;5018837;28;20395;-74
2021/04/04 04:06:34;;;;;;;1.38;0.82;;;;;;;17.52;48.87;102800.97;5019585;28;20053;-74
2021/04/04 04:09:04;;;;;;;1.15;0.77;;;;;;;17.52;48.85;102800.97;5002336;28;20051;-76
2021/04/04 04:11:30;;;;;;;1.60;0.93;;;;;;;17.48;49.13;102789.53;5025968;28;20030;-75
2021/04/04 04:13:58;;;;;;;1.27;0.88;;;;;;;17.49;48.81;102792.19;5012418;28;20391;-75
2021/04/04 04:16:24;;;;;;;1.67;1.20;;;;;;;17.53;48.80;102795.75;5019068;28;20390;-73
2021/04/04 04:18:50;;;;;;;1.40;0.80;;;;;;;17.49;49.02;102792.19;5037599;28;20033;-76
2021/04/04 04:21:16;;;;;;;1.45;1.08;;;;;;;17.52;49.10;102785.28;5022310;28;20025;-74
2021/04/04 04:23:42;;;;;;;2.53;1.30;;;;;;;17.47;48.82;102774.66;5005127;28;20026;-74
2021/04/04 04:26:11;;;;;;;1.75;1.13;;;;;;;17.48;48.66;102784.28;5021252;28;20030;-73
2021/04/04 04:28:39;;;;;;;1.02;0.80;;;;;;;17.46;48.80;102781.63;5040038;28;20030;-73
2021/04/04 04:31:09;;;;;;;1.63;1.23;;;;;;;17.39;48.88;102766.59;5021358;28;20110;-75
2021/04/04 04:33:35;;;;;;;2.03;1.25;;;;;;;17.43;48.80;102772.78;5038118;28;20068;-73
2021/04/04 04:36:01;;;;;;;2.10;1.05;;;;;;;17.50;48.72;102783.50;5021863;28;20029;-74
2021/04/04 04:38:28;;;;;;;1.20;0.80;;;;;;;17.50;48.88;102774.75;5007917;28;20486;-75
2021/04/04 04:40:55;;;;;;;1.63;1.00;;;;;;;17.48;48.74;102779.94;5018896;28;20025;-73
2021/04/04 04:43:22;;;;;;;1.38;0.88;;;;;;;17.45;48.83;102765.88;5021708;28;20076;-73
2021/04/04 04:45:48;;;;;;;1.30;0.82;;;;;;;17.52;48.78;102777.44;5005220;28;20446;-73
2021/04/04 04:48:13;;;;;;;1.63;0.90;;;;;;;17.42;48.64;102769.28;5003161;28;20037;-72
2021/04/04 04:50:41;;;;;;;2.22;1.05;;;;;;;17.44;48.64;102756.25;5005470;28;20036;-73
2021/04/04 04:53:07;;;;;;;1.73;1.10;;;;;;;17.47;48.92;102759.88;4999590;28;20041;-75
2021/04/04 04:55:33;;;;;;;2.53;1.05;;;;;;;17.52;48.98;102769.59;5002069;28;20025;-74
2021/04/04 04:58:00;;;;;;;5.07;1.25;;;;;;;17.43;48.79;102746.63;5016529;28;20123;-74
2021/04/04 05:00:26;;;;;;;1.42;1.10;;;;;;;17.51;48.98;102758.22;5015683;28;20029;-72
2021/04/04 05:02:52;;;;;;;1.70;1.17;;;;;;;17.43;48.84;102744.03;4999542;28;20033;-73
2021/04/04 05:05:17;;;;;;;1.75;1.20;;;;;;;17.51;48.87;102766.06;4994830;28;20033;-74
2021/04/04 05:07:46;;;;;;;1.38;0.70;;;;;;;17.47;48.71;102751.13;5017078;28;20041;-74
2021/04/04 05:10:13;;;;;;;2.58;1.52;;;;;;;17.50;48.99;102757.34;5001965;28;20053;-73
2021/04/04 05:12:49;;;;;;;1.65;1.20;;;;;;;17.45;48.96;102766.78;5002681;28;20080;-72
2021/04/04 05:15:17;;;;;;;2.13;1.23;;;;;;;17.44;48.79;102754.53;5044777;28;20017;-72
2021/04/04 05:17:43;;;;;;;1.25;0.90;;;;;;;17.43;48.83;102754.47;5035502;28;20472;-72
2021/04/04 05:20:09;;;;;;;1.90;1.20;;;;;;;17.48;49.10;102773.81;5019038;28;20088;-73
2021/04/04 05:22:36;;;;;;;1.33;0.80;;;;;;;17.48;48.86;102763.38;5039050;28;20128;-74
2021/04/04 05:25:02;;;;;;;1.88;1.23;;;;;;;17.45;48.94;102765.88;5021207;28;20101;-75
2021/04/04 05:27:28;;;;;;;1.40;1.08;;;;;;;17.43;49.11;102765.84;5004186;28;20453;-74
2021/04/04 05:29:58;;;;;;;2.28;1.27;;;;;;;17.45;48.91;102768.50;4990079;28;20064;-76
2021/04/04 05:32:24;;;;;;;0.95;0.73;;;;;;;17.42;48.77;102769.28;5036494;28;20056;-74
2021/04/04 05:34:49;;;;;;;1.70;1.08;;;;;;;17.46;48.81;102779.00;5026945;28;20475;-74
2021/04/04 05:37:14;;;;;;;2.13;0.90;;;;;;;17.45;48.89;102769.38;4984267;28;20036;-73
2021/04/04 05:39:40;;;;;;;2.05;0.93;;;;;;;17.46;49.02;102779.00;4999367;28;20433;-73
2021/04/04 05:42:10;;;;;;;2.08;1.50;;;;;;;17.40;48.93;102767.47;4999198;28;20395;-74
2021/04/04 05:44:59;;;;;;;1.58;1.02;;;;;;;17.42;48.69;102773.63;5031436;28;20033;-73
2021/04/04 05:47:41;;;;;;;3.17;1.27;;;;;;;17.44;48.65;102770.22;5001016;28;20089;-73
2021/04/04 05:50:49;;;;;;;2.13;1.08;;;;;;;17.46;48.97;102772.88;5031104;28;20092;-73
2021/04/04 05:53:46;;;;;;;1.73;1.10;;;;;;;17.47;48.75;102772.06;5014526;28;20081;-72
2021/04/04 05:56:22;;;;;;;1.40;1.10;;;;;;;17.45;48.76;102773.72;4979916;28;20037;-73
2021/04/04 05:59:12;;;;;;;2.47;1.27;;;;;;;17.45;48.78;102779.84;5034442;28;20075;-72
2021/04/04 06:01:54;;;;;;;3.75;1.15;;;;;;;17.45;48.96;102781.56;5017549;28;20042;-72
2021/04/04 06:04:38;;;;;;;1.90;1.35;;;;;;;17.45;48.92;102774.63;5054087;28;20167;-73
2021/04/04 06:07:03;;;;;;;1.35;1.00;;;;;;;17.44;49.02;102771.94;5035715;28;20053;-74
2021/04/04 06:09:56;;;;;;;1.60;1.10;;;;;;;17.44;48.82;102777.19;5016657;28;20471;-72
2021/04/04 06:12:35;;;;;;;3.60;1.23;;;;;;;17.43;48.75;102776.28;4998261;28;20037;-73
2021/04/04 06:15:25;;;;;;;1.95;1.17;;;;;;;17.43;48.74;102768.44;5024360;28;20076;-73
2021/04/04 06:17:59;;;;;;;4.05;1.85;;;;;;;17.46;48.91;102780.75;5025150;28;20044;-73
2021/04/04 06:20:38;;;;;;;1.77;1.08;;;;;;;17.43;48.98;102778.03;5035862;28;20144;-72
2021/04/04 06:23:30;;;;;;;1.70;1.25;;;;;;;17.43;48.91;102778.91;5018770;28;20033;-74
2021/04/04 06:26:25;;;;;;;1.90;1.15;;;;;;;17.44;48.96;102780.69;5035684;28;20021;-72
2021/04/04 06:28:59;;;;;;;1.90;1.30;;;;;;;17.43;49.23;102778.91;4998163;28;20547;-73
2021/04/04 06:32:05;;;;;;;1.95;0.90;;;;;;;17.43;48.92;102778.91;5015119;28;20033;-73
2021/04/04 06:34:40;;;;;;;2.72;1.40;;;;;;;17.44;48.64;102778.06;5031256;28;20022;-73
2021/04/04 06:37:29;;;;;;;2.83;1.73;;;;;;;17.39;48.76;102770.94;5025305;28;20517;-73
2021/04/04 06:40:04;;;;;;;2.85;1.25;;;;;;;17.44;48.84;102777.19;5052133;28;20067;-72
2021/04/04 06:42:35;;;;;;;1.67;1.20;;;;;;;17.43;48.77;102772.78;5055472;28;20060;-72
2021/04/04 06:45:14;;;;;;;2.47;1.15;;;;;;;17.41;48.97;102770.13;4997918;28;20022;-73
2021/04/04 06:47:56;;;;;;;1.83;1.35;;;;;;;17.38;48.95;102758.72;5014205;28;20365;-73
2021/04/04 06:50:23;;;;;;;2.75;1.52;;;;;;;17.37;49.04;102752.59;5001483;28;20057;-72
2021/04/04 06:53:11;;;;;;;2.03;1.45;;;;;;;17.40;48.75;102762.22;5001876;28;20120;-73
2021/04/04 06:55:50;;;;;;;2.15;1.20;;;;;;;17.42;49.00;102764.06;5001708;28;20060;-72
2021/04/04 06:58:25;;;;;;;2.25;1.55;;;;;;;17.41;48.78;102764.00;5030445;28;20045;-72
2021/04/04 07:01:07;;;;;;;1.98;1.48;;;;;;;17.33;48.75;102745.47;5040297;28;20028;-73
2021/04/04 07:03:43;;;;;;;2.35;1.77;;;;;;;17.39;49.07;102750.03;5040249;28;20612;-72
2021/04/04 07:06:23;;;;;;;2.35;1.48;;;;;;;17.42;48.77;102750.97;5039897;28;20022;-74
2021/04/04 07:09:18;;;;;;;3.50;1.60;;;;;;;17.41;48.62;102754.44;5039938;28;20116;-73
2021/04/04 07:11:55;;;;;;;2.58;1.42;;;;;;;17.42;49.00;102760.56;5038359;28;20083;-74
2021/04/04 07:15:02;;;;;;;3.10;1.88;;;;;;;17.35;48.91;102751.66;5038684;28;20536;-72
2021/04/04 07:17:44;;;;;;;2.65;1.45;;;;;;;17.41;48.79;102753.53;5036667;28;20049;-73
2021/04/04 07:20:25;;;;;;;2.03;1.48;;;;;;;17.41;48.96;102748.31;5040900;28;20053;-73
2021/04/04 07:23:02;;;;;;;3.22;1.42;;;;;;;17.40;48.86;102746.53;5041810;28;20025;-73
2021/04/04 07:25:34;;;;;;;2.45;1.70;;;;;;;17.41;48.70;102743.09;5057589;28;20021;-72
2021/04/04 07:28:47;;;;;;;1.95;1.20;;;;;;;17.40;48.84;102746.53;5054770;28;20047;-73
2021/04/04 07:31:16;;;;;;;2.22;1.40;;;;;;;17.38;48.62;102740.41;5056923;28;20029;-73
2021/04/04 07:34:15;;;;;;;3.22;1.65;;;;;;;17.40;48.84;102738.69;5056625;28;20024;-72
2021/04/04 07:37:08;;;;;;;1.98;1.33;;;;;;;17.40;48.64;102739.56;5038719;28;20027;-73
2021/04/04 07:39:45;;;;;;;2.47;1.80;;;;;;;17.33;48.68;102719.34;5034571;28;20045;-72
2021/04/04 07:42:37;;;;;;;2.72;1.70;;;;;;;17.40;48.99;102733.47;5038158;28;20056;-72
2021/04/04 07:45:08;;;;;;;2.70;1.90;;;;;;;17.39;48.66;102735.22;5018158;28;20123;-73
2021/04/04 07:48:05;;;;;;;1.77;1.08;;;;;;;17.41;48.97;102738.75;5033164;28;20486;-73
2021/04/04 07:50:38;;;;;;;2.05;1.52;;;;;;;17.37;48.77;102725.56;5038352;28;20025;-75
2021/04/04 07:53:29;;;;;;;2.72;1.95;;;;;;;17.34;48.78;102726.34;5056136;28;20501;-73
2021/04/04 07:56:01;;;;;;;2.28;1.40;;;;;;;17.28;48.85;102715.69;5037318;28;20483;-74
2021/04/04 07:58:34;;;;;;;2.53;1.60;;;;;;;17.30;48.78;102708.78;5017177;28;20394;-73
2021/04/04 08:01:13;;;;;;;2.17;1.58;;;;;;;17.32;48.69;102721.91;5004351;28;20040;-75
2021/04/04 08:03:48;;;;;;;2.10;1.05;;;;;;;17.40;48.88;102738.69;5035900;28;20033;-73
2021/04/04 08:06:15;;;;;;;1.88;1.42;;;;;;;17.35;48.44;102730.72;5000010;28;20487;-73
2021/04/04 08:08:48;;;;;;;3.08;1.88;;;;;;;17.35;48.75;102730.72;4985521;28;20033;-74
2021/04/04 08:11:28;;;;;;;3.17;1.83;;;;;;;17.34;48.78;102718.50;5036308;28;20033;-74
2021/04/04 08:14:13;;;;;;;2.63;1.65;;;;;;;17.41;48.78;102730.00;5036499;28;20506;-74
2021/04/04 08:16:50;;;;;;;3.50;2.13;;;;;;;17.39;48.76;102726.50;5034631;28;20037;-73
2021/04/04 08:19:16;;;;;;;3.15;1.40;;;;;;;17.39;48.85;102724.75;5014801;28;20034;-73
2021/04/04 08:21:53;;;;;;;2.10;1.58;;;;;;;17.40;48.85;102726.50;5009533;28;20063;-73
2021/04/04 08:24:36;;;;;;;3.90;1.80;;;;;;;17.41;48.72;102724.78;5013356;28;20037;-72
2021/04/04 08:27:21;;;;;;;2.50;1.67;;;;;;;17.35;48.81;102711.53;4998826;28;20033;-72
2021/04/04 08:29:54;;;;;;;3.65;2.05;;;;;;;17.40;48.65;102720.38;4998350;28;20030;-75
2021/04/04 08:32:43;;;;;;;2.65;1.48;;;;;;;17.41;48.91;102727.38;5009386;28;20021;-74
2021/04/04 08:35:13;;;;;;;2.78;2.15;;;;;;;17.39;48.88;102713.41;5031249;28;20045;-72
2021/04/04 08:37:43;;;;;;;2.45;1.50;;;;;;;17.42;48.90;102722.22;5007789;28;20037;-74
2021/04/04 08:40:13;;;;;;;3.58;2.17;;;;;;;17.37;48.68;102713.38;5029115;28;20057;-72
2021/04/04 08:42:40;;;;;;;2.85;1.95;;;;;;;17.39;48.52;102714.31;5017933;28;20017;-72
2021/04/04 08:45:12;;;;;;;3.78;2.08;;;;;;;17.32;49.03;102707.09;5016741;28;20033;-72
2021/04/04 08:47:42;;;;;;;2.80;1.42;;;;;;;17.34;48.84;102705.41;5026506;28;20032;-73
2021/04/04 08:50:12;;;;;;;4.30;2.22;;;;;;;17.41;48.52;102709.97;5027988;28;20387;-75
2021/04/04 08:52:54;;;;;;;2.25;1.98;;;;;;;17.42;48.73;102710.84;5022214;28;20087;-75
2021/04/04 08:55:25;;;;;;;2.95;1.85;;;;;;;17.43;48.69;102710.03;5026243;28;20483;-73
2021/04/04 08:57:51;;;;;;;2.13;1.40;;;;;;;17.41;48.96;102703.84;5016821;28;20128;-74
2021/04/04 09:00:19;;;;;;;2.33;1.40;;;;;;;17.37;48.58;102700.28;5035115;28;20028;-76
2021/04/04 09:02:48;;;;;;;2.97;1.95;;;;;;;17.39;48.82;102702.94;5013651;28;20037;-72
2021/04/04 09:05:14;;;;;;;2.33;1.73;;;;;;;17.41;48.71;102703.84;5011489;28;20495;-74
2021/04/04 09:07:42;;;;;;;3.40;1.80;;;;;;;17.43;48.90;102710.91;4990428;28;20032;-75
2021/04/04 09:10:11;;;;;;;2.13;1.20;;;;;;;17.41;48.73;102706.47;5022318;28;20026;-74
2021/04/04 09:12:39;;;;;;;3.15;2.30;;;;;;;17.44;48.64;102710.06;5034120;28;20029;-74
2021/04/04 09:15:07;;;;;;;2.13;1.50;;;;;;;17.43;48.74;102705.69;5014351;28;20051;-74
2021/04/04 09:17:32;;;;;;;2.30;1.50;;;;;;;17.42;48.67;102709.13;5010088;28;20033;-71
2021/04/04 09:20:05;;;;;;;2.20;1.60;;;;;;;17.37;48.72;102700.28;4997955;28;20372;-74
2021/04/04 09:22:31;;;;;;;2.53;1.67;;;;;;;17.36;48.62;102693.28;5005303;28;20026;-73
2021/04/04 09:25:01;;;;;;;3.30;2.17;;;;;;;17.39;48.80;102690.75;5006889;28;20095;-75
2021/04/04 09:27:33;;;;;;;2.67;1.92;;;;;;;17.40;48.70;102695.13;5034409;28;20093;-73
2021/04/04 09:30:00;;;;;;;2.92;1.60;;;;;;;17.39;48.76;102682.03;5007144;28;20018;-72
2021/04/04 09:32:35;;;;;;;2.90;1.90;;;;;;;17.39;48.37;102687.25;5017381;28;20092;-71
2021/04/04 09:35:04;;;;;;;2.65;1.70;;;;;;;17.42;48.63;102695.16;5017263;28;20039;-72
2021/04/04 09:37:30;;;;;;;2.92;2.13;;;;;;;17.42;48.67;102687.31;5034418;28;20025;-71
2021/04/04 09:39:56;;;;;;;2.35;1.60;;;;;;;17.46;48.62;102695.31;5000723;28;20033;-75
2021/04/04 09:42:22;;;;;;;3.58;1.92;;;;;;;17.45;48.71;102692.66;5017718;28;20398;-75
2021/04/04 09:44:48;;;;;;;2.53;1.63;;;;;;;17.23;48.30;102645.81;4998568;28;20037;-75
2021/04/04 09:47:14;;;;;;;2.30;1.60;;;;;;;17.45;48.56;102682.19;5016381;28;20026;-73
2021/04/04 09:49:48;;;;;;;2.58;1.65;;;;;;;17.41;48.64;102678.59;5016889;28;20527;-75
2021/04/04 09:52:24;;;;;;;2.80;1.80;;;;;;;17.39;48.86;102667.22;5028664;28;20043;-74
2021/04/04 09:55:07;;;;;;;4.82;2.03;;;;;;;17.47;49.04;102685.75;5016303;28;20475;-73
2021/04/04 09:57:40;;;;;;;2.70;1.60;;;;;;;17.47;48.82;102675.28;5024164;28;20068;-75
2021/04/04 10:00:27;;;;;;;2.83;1.98;;;;;;;17.42;48.85;102671.63;5055482;28;20025;-75
2021/04/04 10:02:55;;;;;;;2.72;1.67;;;;;;;17.47;48.95;102680.50;5032515;28;20040;-74
2021/04/04 10:05:30;;;;;;;2.63;1.95;;;;;;;17.45;48.77;102674.34;5016279;28;20383;-74
2021/04/04 10:08:07;;;;;;;5.47;2.70;;;;;;;17.36;48.60;102651.44;5007800;28;20398;-74
2021/04/04 10:10:32;;;;;;;2.88;1.80;;;;;;;17.43;48.71;102660.31;5042077;28;20059;-74
2021/04/04 10:12:59;;;;;;;2.25;1.73;;;;;;;17.49;48.71;102671.88;5004180;28;20094;-74
2021/04/04 10:15:25;;;;;;;2.90;1.98;;;;;;;17.37;48.75;102645.38;5010269;28;20033;-74
2021/04/04 10:17:58;;;;;;;3.97;2.13;;;;;;;17.49;48.79;102666.63;5034489;28;20056;-75
2021/04/04 10:20:37;;;;;;;2.63;2.00;;;;;;;17.45;48.70;102651.69;5026375;28;20053;-74
2021/04/04 10:23:04;;;;;;;2.78;1.55;;;;;;;17.44;48.82;102644.69;5037493;28;20160;-74
2021/04/04 10:25:30;;;;;;;3.35;2.20;;;;;;;17.52;48.88;102658.00;5040711;28;20077;-72
2021/04/04 10:27:58;;;;;;;4.13;2.80;;;;;;;17.50;48.62;102659.69;5057704;28;20386;-74
2021/04/04 10:30:27;;;;;;;4.70;2.17;;;;;;;17.46;48.82;102643.00;5042009;28;20546;-74
2021/04/04 10:32:52;;;;;;;2.70;1.95;;;;;;;17.37;48.72;102623.56;5042259;28;20039;-74
2021/04/04 10:35:34;;;;;;;2.55;1.70;;;;;;;17.47;48.56;102638.66;5040711;28;20024;-74
2021/04/04 10:38:03;;;;;;;2.30;1.60;;;;;;;17.52;48.51;102637.06;5056323;28;20359;-74
2021/04/04 10:40:51;;;;;;;2.72;1.75;;;;;;;17.52;48.71;102639.69;5037267;28;20025;-74
2021/04/04 10:43:23;;;;;;;2.88;1.80;;;;;;;17.46;48.62;102622.06;5054100;28;20495;-74
2021/04/04 10:46:08;;;;;;;3.30;1.90;;;;;;;17.52;48.83;102634.44;5059481;28;20033;-75
2021/04/04 10:48:41;;;;;;;2.88;1.92;;;;;;;17.54;48.65;102626.63;5059908;28;20017;-75
2021/04/04 10:51:08;;;;;;;3.03;2.25;;;;;;;17.48;48.72;102617.78;5049365;28;20025;-76
2021/04/04 10:53:35;;;;;;;3.13;2.05;;;;;;;17.53;48.69;102620.50;5061997;28;20498;-74
2021/04/04 10:56:01;;;;;;;2.70;1.98;;;;;;;17.53;48.83;102612.66;5043672;28;20059;-73
2021/04/04 10:58:28;;;;;;;3.42;2.47;;;;;;;17.53;48.56;102603.94;5031327;28;20045;-74
2021/04/04 11:00:57;;;;;;;3.58;2.08;;;;;;;17.53;48.66;102601.34;5038761;28;20061;-74
2021/04/04 11:03:23;;;;;;;3.60;2.47;;;;;;;17.53;48.73;102598.72;5040718;28;20022;-74
2021/04/04 11:05:50;;;;;;;3.47;2.40;;;;;;;17.52;48.76;102599.56;5022216;28;20033;-73
2021/04/04 11:08:16;;;;;;;4.18;2.45;;;;;;;17.56;49.01;102601.41;5049711;28;20031;-74
2021/04/04 11:10:43;;;;;;;3.22;2.42;;;;;;;17.57;48.84;102597.94;5055802;28;20040;-73
2021/04/04 11:13:08;;;;;;;4.10;2.05;;;;;;;17.50;48.81;102581.22;5038183;28;20083;-74
2021/04/04 11:15:41;;;;;;;4.82;2.97;;;;;;;17.48;48.00;102577.66;5022944;28;20029;-73
2021/04/04 11:18:42;;;;;;;3.70;2.40;;;;;;;17.53;48.63;102583.88;5038752;28;20040;-72
2021/04/04 11:21:12;;;;;;;3.22;2.17;;;;;;;17.59;48.34;102575.31;5052224;28;20650;-74
2021/04/04 11:23:38;;;;;;;3.25;2.00;;;;;;;17.63;48.37;102571.94;5058765;28;20378;-77
2021/04/04 11:26:24;;;;;;;4.00;2.45;;;;;;;17.80;48.39;102570.66;5055146;28;20069;-73
2021/04/04 11:29:09;;;;;;;4.85;2.63;;;;;;;17.98;48.42;102576.38;5041613;28;20364;-75
2021/04/04 11:31:36;;;;;;;4.90;3.20;;;;;;;18.04;48.70;102570.41;5043379;28;20032;-73
2021/04/04 11:34:24;;;;;;;5.15;4.13;;;;;;;18.06;48.47;102568.69;5056953;28;20025;-73
2021/04/04 11:36:50;;;;;;;4.70;3.72;;;;;;;18.11;49.34;102560.09;5021289;28;20475;-71
2021/04/04 11:39:16;;;;;;;6.88;4.32;;;;;;;18.20;49.32;102554.19;5048938;28;20120;-73
2021/04/04 11:41:50;;;;;;;7.38;3.78;;;;;;;18.20;49.03;102544.59;5041885;28;20033;-72
2021/04/04 11:44:31;;;;;;;5.65;3.53;;;;;;;18.19;49.01;102549.81;5041387;28;20113;-72
2021/04/04 11:46:57;;;;;;;6.93;3.70;;;;;;;18.25;49.09;102543.84;5040741;28;20540;-75